createdAt,value
2022-11-18T00:01:06.705Z,87.94
2022-11-18T00:03:33.556Z,87.92
2022-11-18T00:06:00.346Z,88.30
2022-11-18T00:08:27.132Z,88.03
2022-11-18T00:10:54.276Z,88.29
2022-11-18T00:13:40.017Z,88.40
2022-11-18T00:16:09.548Z,88.78
2022-11-18T00:18:37.244Z,88.95
2022-11-18T00:21:06.097Z,88.99
2022-11-18T00:23:33.288Z,89.16
2022-11-18T00:26:14.524Z,88.90
2022-11-18T00:28:42.079Z,88.96
2022-11-18T00:31:13.724Z,88.73
2022-11-18T00:33:41.309Z,88.58
2022-11-18T00:36:11.010Z,88.03
2022-11-18T00:38:38.413Z,88.05
2022-11-18T00:41:14.792Z,87.60
2022-11-18T00:43:42.432Z,87.32
2022-11-18T00:46:11.652Z,86.80
2022-11-18T00:48:39.455Z,86.62
2022-11-18T00:51:08.636Z,86.09
2022-11-18T00:53:35.488Z,85.95
2022-11-18T00:56:02.465Z,85.86
2022-11-18T00:58:30.272Z,85.60
2022-11-18T01:00:57.175Z,85.86
2022-11-18T01:03:28.698Z,85.69
2022-11-18T01:05:56.029Z,86.05
2022-11-18T01:08:23.085Z,86.35
2022-11-18T01:10:50.959Z,86.74
2022-11-18T01:13:20.279Z,86.51
2022-11-18T01:15:54.480Z,86.57
2022-11-18T01:18:24.137Z,86.59
2022-11-18T01:20:51.035Z,86.61
2022-11-18T01:23:19.361Z,86.42
2022-11-18T01:25:48.232Z,86.53
2022-11-18T01:28:21.794Z,86.64
2022-11-18T01:30:50.419Z,86.92
2022-11-18T01:33:17.279Z,87.20
2022-11-18T01:35:44.505Z,87.13
2022-11-18T01:38:14.051Z,87.30
2022-11-18T01:40:41.559Z,87.75
2022-11-18T01:43:14.458Z,87.98
2022-11-18T01:45:43.387Z,87.99
2022-11-18T01:48:21.256Z,87.90
2022-11-18T01:50:52.407Z,88.15
2022-11-18T01:53:25.746Z,88.22
2022-11-18T01:55:55.311Z,88.46
2022-11-18T01:58:29.149Z,88.33
2022-11-18T02:00:55.935Z,88.68
2022-11-18T02:03:23.676Z,88.48
2022-11-18T02:05:52.008Z,87.95
2022-11-18T02:08:19.300Z,87.80
2022-11-18T02:10:46.034Z,87.38
2022-11-18T02:13:13.492Z,87.14
2022-11-18T02:16:03.107Z,86.98
2022-11-18T02:18:32.973Z,87.10
2022-11-18T02:21:16.661Z,87.31
2022-11-18T02:24:30.878Z,87.51
2022-11-18T02:27:12.406Z,87.31
2022-11-18T02:29:48.628Z,87.50
2022-11-18T02:32:50.702Z,88.07
2022-11-18T02:35:32.041Z,88.24
2022-11-18T02:38:23.110Z,88.22
2022-11-18T02:40:55.734Z,87.66
2022-11-18T02:43:29.038Z,87.37
2022-11-18T02:46:01.833Z,87.07
2022-11-18T02:48:32.778Z,87.05
2022-11-18T02:51:02.062Z,87.00
2022-11-18T02:53:32.660Z,86.96
2022-11-18T02:56:01.949Z,87.05
2022-11-18T02:58:28.708Z,87.33
2022-11-18T03:00:57.555Z,87.56
2022-11-18T03:03:35.264Z,87.47
2022-11-18T03:06:20.291Z,87.38
2022-11-18T03:08:53.658Z,87.26
2022-11-18T03:11:24.186Z,87.29
2022-11-18T03:14:09.424Z,86.97
2022-11-18T03:16:50.961Z,86.80
2022-11-18T03:19:20.564Z,86.52
2022-11-18T03:22:01.535Z,86.10
2022-11-18T03:24:33.717Z,85.94
2022-11-18T03:27:33.733Z,86.38
2022-11-18T03:30:08.371Z,86.62
2022-11-18T03:32:40.673Z,87.31
2022-11-18T03:35:14.552Z,87.13
2022-11-18T03:37:42.930Z,87.58
2022-11-18T03:40:19.031Z,87.55
2022-11-18T03:42:50.694Z,87.77
2022-11-18T03:45:32.984Z,87.96
2022-11-18T03:48:17.069Z,87.94
2022-11-18T03:50:59.754Z,88.02
2022-11-18T03:53:30.604Z,87.86
2022-11-18T03:56:21.270Z,87.81
2022-11-18T03:59:01.959Z,87.33
2022-11-18T04:01:51.765Z,87.13
2022-11-18T04:04:19.413Z,87.01
2022-11-18T04:06:48.524Z,86.50
2022-11-18T04:09:20.821Z,86.42
2022-11-18T04:12:03.984Z,86.04
2022-11-18T04:14:36.952Z,85.82
2022-11-18T04:17:29.973Z,86.08
2022-11-18T04:19:56.868Z,85.94
2022-11-18T04:22:23.652Z,85.69
2022-11-18T04:24:50.501Z,85.79
2022-11-18T04:27:17.582Z,85.55
2022-11-18T04:29:44.429Z,85.47
2022-11-18T04:32:11.200Z,85.51
2022-11-18T04:34:38.037Z,85.22
2022-11-18T04:37:04.909Z,85.27
2022-11-18T04:39:31.656Z,85.34
2022-11-18T04:41:58.522Z,85.28
2022-11-18T04:44:30.684Z,84.76
2022-11-18T04:46:59.652Z,84.96
2022-11-18T04:49:27.333Z,84.99
2022-11-18T04:51:54.646Z,84.93
2022-11-18T04:54:21.904Z,85.06
2022-11-18T04:56:49.820Z,84.90
2022-11-18T04:59:20.871Z,84.97
2022-11-18T05:01:49.373Z,85.07
2022-11-18T05:04:19.364Z,84.97
2022-11-18T05:06:46.567Z,85.07
2022-11-18T05:09:13.759Z,85.04
2022-11-18T05:11:59.041Z,85.27
2022-11-18T05:14:30.679Z,85.49
2022-11-18T05:16:59.477Z,85.81
2022-11-18T05:19:26.631Z,86.36
2022-11-18T05:21:53.686Z,86.85
2022-11-18T05:24:21.054Z,87.27
2022-11-18T05:26:47.807Z,87.19
2022-11-18T05:29:15.029Z,87.37
2022-11-18T05:31:41.921Z,87.51
2022-11-18T05:34:08.671Z,87.39
2022-11-18T05:36:35.810Z,87.13
2022-11-18T05:39:03.749Z,86.58
2022-11-18T05:41:49.077Z,85.97
2022-11-18T05:44:16.254Z,85.90
2022-11-18T05:46:43.160Z,85.85
2022-11-18T05:49:10.084Z,85.65
2022-11-18T05:51:36.979Z,85.36
2022-11-18T05:54:07.756Z,85.04
2022-11-18T05:56:45.276Z,84.85
2022-11-18T05:59:12.944Z,84.81
2022-11-18T06:02:03.886Z,84.66
2022-11-18T06:04:39.943Z,84.44
2022-11-18T06:07:15.635Z,84.33
2022-11-18T06:09:45.281Z,84.23
2022-11-18T06:12:16.318Z,84.10
2022-11-18T06:14:56.913Z,84.22
2022-11-18T06:17:32.962Z,84.26
2022-11-18T06:20:00.097Z,84.22
2022-11-18T06:22:26.985Z,84.28
2022-11-18T06:24:54.218Z,84.21
2022-11-18T06:27:21.680Z,84.35
2022-11-18T06:29:48.398Z,84.28
2022-11-18T06:32:15.452Z,84.41
2022-11-18T06:34:42.309Z,84.63
2022-11-18T06:37:14.864Z,84.51
2022-11-18T06:39:41.676Z,84.81
2022-11-18T06:42:08.513Z,84.91
2022-11-18T06:44:35.363Z,84.88
2022-11-18T06:47:03.851Z,84.76
2022-11-18T06:49:30.678Z,84.66
2022-11-18T06:51:57.700Z,84.90
2022-11-18T06:54:24.473Z,84.88
2022-11-18T06:56:51.177Z,85.33
2022-11-18T06:59:24.064Z,85.62
2022-11-18T07:01:53.519Z,86.06
2022-11-18T07:04:20.950Z,86.53
2022-11-18T07:06:47.999Z,86.24
2022-11-18T07:09:15.005Z,86.19
2022-11-18T07:11:41.809Z,85.98
2022-11-18T07:14:09.824Z,85.41
2022-11-18T07:16:36.907Z,85.30
2022-11-18T07:19:12.901Z,85.01
2022-11-18T07:21:40.608Z,84.98
2022-11-18T07:24:09.934Z,84.68
2022-11-18T07:26:36.989Z,84.50
2022-11-18T07:29:04.568Z,84.52
2022-11-18T07:31:32.248Z,84.36
2022-11-18T07:33:59.161Z,84.41
2022-11-18T07:36:32.490Z,84.43
2022-11-18T07:39:03.919Z,84.69
2022-11-18T07:41:31.304Z,84.80
2022-11-18T07:44:01.447Z,84.60
2022-11-18T07:46:30.588Z,86.08
2022-11-18T07:48:59.843Z,85.60
2022-11-18T07:51:29.094Z,85.85
2022-11-18T07:53:56.410Z,86.01
2022-11-18T07:56:23.629Z,85.94
2022-11-18T07:58:54.958Z,86.15
2022-11-18T08:01:25.137Z,86.40
2022-11-18T08:03:52.476Z,87.58
2022-11-18T08:06:20.313Z,87.18
2022-11-18T08:08:47.448Z,87.74
2022-11-18T08:11:22.730Z,88.29
2022-11-18T08:13:51.520Z,89.06
2022-11-18T08:16:23.490Z,90.22
2022-11-18T08:18:50.838Z,90.90
2022-11-18T08:21:19.452Z,90.87
2022-11-18T08:23:54.521Z,90.74
2022-11-18T08:26:22.060Z,90.36
2022-11-18T08:28:49.333Z,91.37
2022-11-18T08:31:27.735Z,92.41
2022-11-18T08:33:58.298Z,94.50
2022-11-18T08:36:27.845Z,95.05
2022-11-18T08:38:59.671Z,95.13
2022-11-18T08:41:35.755Z,94.57
2022-11-18T08:44:03.239Z,95.28
2022-11-18T08:46:30.464Z,95.08
2022-11-18T08:48:58.160Z,95.44
2022-11-18T08:51:25.828Z,94.85
2022-11-18T08:53:52.678Z,94.85
2022-11-18T08:56:21.710Z,94.03
2022-11-18T08:58:48.439Z,94.75
2022-11-18T09:01:15.281Z,94.22
2022-11-18T09:03:42.515Z,91.20
2022-11-18T09:06:14.730Z,88.66
2022-11-18T09:08:42.541Z,89.17
2022-11-18T09:11:14.890Z,86.20
2022-11-18T09:14:14.258Z,81.64
2022-11-18T09:16:32.329Z,81.75
2022-11-18T09:19:13.093Z,82.66
2022-11-18T09:21:47.053Z,83.46
2022-11-18T09:24:13.953Z,84.25
2022-11-18T09:26:41.252Z,92.13
2022-11-18T09:29:08.740Z,97.13
2022-11-18T09:31:35.699Z,97.47
2022-11-18T09:34:02.448Z,94.15
2022-11-18T09:36:29.577Z,94.71
2022-11-18T09:38:56.465Z,91.57
2022-11-18T09:41:45.293Z,88.75
2022-11-18T09:45:02.797Z,93.08
2022-11-18T09:47:33.919Z,86.23
2022-11-18T09:50:26.608Z,85.43
2022-11-18T09:53:07.342Z,87.65
2022-11-18T09:55:38.674Z,83.13
2022-11-18T09:58:06.511Z,82.01
2022-11-18T10:00:34.305Z,79.88
2022-11-18T10:03:01.108Z,79.46
2022-11-18T10:05:36.965Z,79.64
2022-11-18T10:08:15.601Z,77.31
2022-11-18T10:11:00.465Z,78.66
2022-11-18T10:13:30.125Z,76.08
2022-11-18T10:16:17.277Z,76.97
2022-11-18T10:19:07.151Z,79.95
2022-11-18T10:22:01.323Z,80.04
2022-11-18T10:24:33.180Z,72.93
2022-11-18T10:27:00.685Z,71.06
2022-11-18T10:29:27.657Z,71.60
2022-11-18T10:32:08.615Z,74.75
2022-11-18T10:34:53.850Z,74.94
2022-11-18T10:37:39.048Z,73.85
2022-11-18T10:40:26.020Z,76.72
2022-11-18T10:42:53.639Z,84.96
2022-11-18T10:45:23.311Z,80.50
2022-11-18T10:48:09.410Z,86.58
2022-11-18T10:50:49.234Z,81.69
2022-11-18T10:53:37.205Z,87.13
2022-11-18T10:56:08.735Z,81.92
2022-11-18T10:58:43.575Z,81.14
2022-11-18T11:01:19.182Z,81.91
2022-11-18T11:04:03.215Z,81.72
2022-11-18T11:06:32.785Z,81.33
2022-11-18T11:09:02.383Z,91.64
2022-11-18T11:11:29.397Z,91.82
2022-11-18T11:14:03.647Z,81.09
2022-11-18T11:16:31.906Z,76.20
2022-11-18T11:19:02.502Z,73.56
2022-11-18T11:21:30.238Z,68.55
2022-11-18T11:23:57.221Z,65.03
2022-11-18T11:29:47.510Z,60.61
2022-11-18T11:32:43.917Z,58.57
2022-11-18T11:35:30.440Z,55.42
2022-11-18T11:38:06.598Z,50.84
2022-11-18T11:40:59.485Z,48.70
2022-11-18T11:43:56.634Z,48.21
2022-11-18T11:47:19.943Z,49.15
2022-11-18T11:50:12.941Z,48.83
2022-11-18T11:52:45.480Z,48.58
2022-11-18T11:55:31.209Z,48.69
2022-11-18T11:58:00.600Z,49.39
2022-11-18T12:00:28.956Z,55.38
2022-11-18T12:02:58.488Z,53.89
2022-11-18T12:05:36.178Z,58.48
2022-11-18T12:08:24.536Z,58.14
2022-11-18T12:10:54.376Z,57.69
2022-11-18T12:13:23.969Z,60.08
2022-11-18T12:15:50.654Z,59.17
2022-11-18T12:18:42.194Z,60.60
2022-11-18T12:21:09.367Z,61.81
2022-11-18T12:23:36.207Z,62.85
2022-11-18T12:26:10.436Z,62.93
2022-11-18T12:28:44.023Z,63.72
2022-11-18T12:31:16.606Z,63.56
2022-11-18T12:33:55.627Z,63.07
2022-11-18T12:36:37.465Z,63.95
2022-11-18T12:39:36.359Z,64.43
2022-11-18T12:42:23.486Z,66.30
2022-11-18T12:44:52.825Z,64.05
2022-11-18T12:47:42.656Z,60.24
2022-11-18T12:50:11.211Z,59.01
2022-11-18T12:52:37.893Z,55.63
2022-11-18T12:55:31.872Z,52.83
2022-11-18T12:57:58.683Z,51.90
2022-11-18T13:00:25.502Z,52.15
2022-11-18T13:02:57.463Z,52.58
2022-11-18T13:05:25.844Z,54.07
2022-11-18T13:08:16.783Z,55.48
2022-11-18T13:10:43.416Z,57.07
2022-11-18T13:13:27.173Z,58.05
2022-11-18T13:16:14.661Z,58.81
2022-11-18T13:18:52.433Z,60.11
2022-11-18T13:21:46.993Z,60.72
2022-11-18T13:24:16.091Z,62.23
2022-11-18T13:26:45.886Z,62.70
2022-11-18T13:29:13.703Z,63.22
2022-11-18T13:32:08.737Z,63.79
2022-11-18T13:34:47.289Z,64.37
2022-11-18T13:37:29.662Z,64.56
2022-11-18T13:39:57.581Z,64.65
2022-11-18T13:42:28.401Z,64.58
2022-11-18T13:44:59.849Z,64.60
2022-11-18T13:47:40.128Z,64.99
2022-11-18T13:50:31.864Z,64.87
2022-11-18T13:53:13.834Z,65.55
2022-11-18T13:55:57.873Z,65.25
2022-11-18T13:58:49.688Z,64.96
2022-11-18T14:01:29.393Z,65.03
2022-11-18T14:03:58.826Z,65.09
2022-11-18T14:06:26.490Z,65.99
2022-11-18T14:09:19.139Z,66.42
2022-11-18T14:12:23.828Z,67.07
2022-11-18T14:14:50.592Z,67.28
2022-11-18T14:17:24.700Z,67.96
2022-11-18T14:19:56.676Z,67.92
2022-11-18T14:22:28.784Z,68.39
2022-11-18T14:24:58.621Z,68.80
2022-11-18T14:27:29.358Z,68.56
2022-11-18T14:29:56.310Z,68.88
2022-11-18T14:32:23.578Z,68.24
2022-11-18T14:35:00.789Z,67.97
2022-11-18T14:37:27.942Z,67.74
2022-11-18T14:39:56.405Z,67.76
2022-11-18T14:42:23.918Z,67.78
2022-11-18T14:44:51.227Z,67.58
2022-11-18T14:47:28.622Z,68.01
2022-11-18T14:49:55.813Z,67.91
2022-11-18T14:52:22.511Z,68.08
2022-11-18T14:54:49.307Z,68.66
2022-11-18T14:57:17.428Z,68.65
2022-11-18T14:59:44.168Z,68.64
2022-11-18T15:02:16.272Z,68.81
2022-11-18T15:04:43.332Z,69.25
2022-11-18T15:07:18.525Z,69.07
2022-11-18T15:09:49.755Z,70.50
2022-11-18T15:12:16.618Z,71.08
2022-11-18T15:14:43.503Z,72.12
2022-11-18T15:17:12.440Z,72.29
2022-11-18T15:19:40.913Z,72.72
2022-11-18T15:22:08.082Z,72.90
2022-11-18T15:24:34.782Z,73.32
2022-11-18T15:27:05.511Z,73.53
2022-11-18T15:29:32.543Z,73.72
2022-11-18T15:32:00.252Z,73.76
2022-11-18T15:34:27.210Z,73.81
2022-11-18T15:36:53.966Z,73.81
2022-11-18T15:39:20.783Z,74.22
2022-11-18T15:41:47.598Z,74.61
2022-11-18T15:44:16.231Z,75.00
2022-11-18T15:46:45.501Z,74.64
2022-11-18T15:49:14.602Z,74.72
2022-11-18T15:51:41.598Z,75.07
2022-11-18T15:54:08.349Z,74.88
2022-11-18T15:56:35.300Z,74.80
2022-11-18T15:59:07.527Z,74.79
2022-11-18T16:01:36.833Z,75.10
2022-11-18T16:04:05.225Z,75.31
2022-11-18T16:06:32.962Z,75.31
2022-11-18T16:09:00.661Z,75.64
2022-11-18T16:11:47.966Z,75.33
2022-11-18T16:14:17.396Z,75.32
2022-11-18T16:16:45.795Z,75.56
2022-11-18T16:19:14.744Z,74.75
2022-11-18T16:21:44.293Z,74.01
2022-11-18T16:24:13.532Z,73.24
2022-11-18T16:26:40.395Z,73.20
2022-11-18T16:29:08.101Z,72.77
2022-11-18T16:31:41.277Z,73.83
2022-11-18T16:34:28.424Z,73.65
2022-11-18T16:36:57.766Z,72.47
2022-11-18T16:39:27.302Z,71.04
2022-11-18T16:41:59.418Z,70.67
2022-11-18T16:44:29.191Z,71.33
2022-11-18T16:46:57.660Z,71.25
2022-11-18T16:49:26.344Z,71.54
2022-11-18T16:51:55.110Z,71.23
2022-11-18T16:54:31.151Z,71.46
2022-11-18T16:56:59.452Z,71.56
2022-11-18T16:59:28.659Z,71.66
2022-11-18T17:01:57.292Z,71.63
2022-11-18T17:04:25.684Z,71.56
2022-11-18T17:06:53.412Z,71.47
2022-11-18T17:09:22.562Z,71.33
2022-11-18T17:11:50.736Z,71.50
2022-11-18T17:14:17.958Z,71.34
2022-11-18T17:16:44.705Z,71.24
2022-11-18T17:19:16.846Z,71.09
2022-11-18T17:21:44.654Z,71.10
2022-11-18T17:24:14.066Z,70.95
2022-11-18T17:26:41.660Z,70.95
2022-11-18T17:29:11.576Z,71.01
2022-11-18T17:31:39.546Z,71.54
2022-11-18T17:34:06.475Z,71.62
2022-11-18T17:36:33.417Z,72.11
2022-11-18T17:39:00.976Z,72.61
2022-11-18T17:41:47.214Z,72.96
2022-11-18T17:44:16.400Z,73.73
2022-11-18T17:46:43.573Z,74.48
2022-11-18T17:49:18.323Z,74.72
2022-11-18T17:51:46.277Z,74.98
2022-11-18T17:54:13.371Z,75.15
2022-11-18T17:56:40.328Z,75.18
2022-11-18T17:59:07.601Z,75.33
2022-11-18T18:01:34.504Z,75.38
2022-11-18T18:04:01.410Z,75.63
2022-11-18T18:06:28.119Z,75.69
2022-11-18T18:08:56.669Z,75.88
2022-11-18T18:11:23.818Z,76.16
2022-11-18T18:14:09.113Z,76.38
2022-11-18T18:16:36.192Z,76.86
2022-11-18T18:19:05.199Z,77.25
2022-11-18T18:21:32.720Z,77.51
2022-11-18T18:24:00.188Z,77.80
2022-11-18T18:26:31.532Z,77.97
2022-11-18T18:29:00.143Z,77.89
2022-11-18T18:31:27.593Z,77.84
2022-11-18T18:33:54.613Z,77.76
2022-11-18T18:36:21.864Z,77.98
2022-11-18T18:38:48.647Z,77.67
2022-11-18T18:41:21.107Z,77.70
2022-11-18T18:43:48.669Z,77.70
2022-11-18T18:46:33.535Z,77.72
2022-11-18T18:49:04.791Z,77.88
2022-11-18T18:51:37.586Z,77.76
2022-11-18T18:54:05.332Z,77.58
2022-11-18T18:56:32.999Z,77.47
2022-11-18T18:59:00.518Z,77.21
2022-11-18T19:01:28.280Z,77.63
2022-11-18T19:04:00.375Z,77.81
2022-11-18T19:06:55.020Z,78.21
2022-11-18T19:09:19.476Z,78.86
2022-11-18T19:12:05.341Z,78.87
2022-11-18T19:14:33.683Z,79.03
2022-11-18T19:17:05.035Z,79.02
2022-11-18T19:19:55.569Z,78.96
2022-11-18T19:22:22.746Z,79.30
2022-11-18T19:27:38.987Z,79.58
2022-11-18T19:30:10.086Z,79.24
2022-11-18T19:32:42.160Z,79.03
2022-11-18T19:35:09.733Z,78.74
2022-11-18T19:37:36.792Z,78.56
2022-11-18T19:40:08.904Z,78.45
2022-11-18T19:42:37.807Z,78.34
2022-11-18T19:45:06.428Z,78.31
2022-11-18T19:47:33.774Z,78.53
2022-11-18T19:50:00.524Z,78.38
2022-11-18T19:52:27.599Z,78.43
2022-11-18T19:54:54.986Z,78.67
2022-11-18T19:57:22.135Z,79.08
2022-11-18T19:59:48.939Z,79.31
2022-11-18T20:02:15.763Z,79.63
2022-11-18T20:05:02.491Z,79.73
2022-11-18T20:07:29.882Z,80.07
2022-11-18T20:09:56.657Z,80.03
2022-11-18T20:12:23.645Z,80.10
2022-11-18T20:14:50.430Z,79.97
2022-11-18T20:17:17.131Z,79.82
2022-11-18T20:19:43.929Z,79.78
2022-11-18T20:22:10.738Z,79.67
2022-11-18T20:24:37.443Z,79.58
2022-11-18T20:27:04.592Z,79.55
2022-11-18T20:29:31.298Z,79.39
2022-11-18T20:31:57.970Z,79.30
2022-11-18T20:34:24.766Z,79.21
2022-11-18T20:36:54.659Z,79.11
2022-11-18T20:39:21.976Z,79.40
2022-11-18T20:42:07.444Z,79.18
2022-11-18T20:44:34.148Z,79.23
2022-11-18T20:47:00.834Z,79.10
2022-11-18T20:49:27.743Z,79.24
2022-11-18T20:51:54.472Z,79.09
2022-11-18T20:54:21.159Z,79.42
2022-11-18T20:56:47.906Z,79.76
2022-11-18T20:59:14.595Z,79.89
2022-11-18T21:01:41.433Z,79.97
2022-11-18T21:04:11.246Z,79.84
2022-11-18T21:06:38.614Z,80.25
2022-11-18T21:09:06.605Z,80.18
2022-11-18T21:11:35.031Z,80.03
2022-11-18T21:14:24.570Z,80.28
2022-11-18T21:17:00.833Z,80.23
2022-11-18T21:19:28.800Z,80.38
2022-11-18T21:21:56.496Z,80.50
2022-11-18T21:24:27.781Z,80.63
2022-11-18T21:26:55.389Z,81.03
2022-11-18T21:29:25.921Z,81.18
2022-11-18T21:31:53.700Z,81.59
2022-11-18T21:34:20.995Z,81.53
2022-11-18T21:36:53.159Z,81.29
2022-11-18T21:39:22.708Z,80.76
2022-11-18T21:41:55.176Z,80.58
2022-11-18T21:44:24.057Z,80.46
2022-11-18T21:46:50.835Z,80.34
2022-11-18T21:49:17.841Z,80.03
2022-11-18T21:51:45.355Z,79.69
2022-11-18T21:54:13.058Z,79.86
2022-11-18T21:56:39.755Z,79.64
2022-11-18T21:59:07.875Z,79.58
2022-11-18T22:01:35.133Z,79.48
2022-11-18T22:04:04.381Z,79.48
2022-11-18T22:06:34.026Z,79.77
2022-11-18T22:09:02.709Z,80.29
2022-11-18T22:11:29.674Z,80.48
2022-11-18T22:13:56.797Z,80.72
2022-11-18T22:16:25.155Z,81.07
2022-11-18T22:18:59.976Z,81.30
2022-11-18T22:21:28.183Z,81.72
2022-11-18T22:24:00.148Z,81.70
2022-11-18T22:26:28.483Z,82.05
2022-11-18T22:28:57.319Z,82.10
2022-11-18T22:31:26.680Z,82.10
2022-11-18T22:33:55.713Z,82.00
2022-11-18T22:36:24.895Z,82.31
2022-11-18T22:38:51.984Z,82.28
2022-11-18T22:41:39.862Z,82.51
2022-11-18T22:44:08.476Z,83.01
2022-11-18T22:46:36.868Z,82.60
2022-11-18T22:49:04.705Z,82.55
2022-11-18T22:51:31.930Z,82.55
2022-11-18T22:56:45.521Z,82.15
2022-11-18T22:59:12.851Z,81.80
2022-11-18T23:01:39.886Z,81.76
2022-11-18T23:04:07.211Z,81.86
2022-11-18T23:06:34.359Z,81.79
2022-11-18T23:09:01.069Z,81.91
2022-11-18T23:11:46.573Z,82.03
2022-11-18T23:14:13.458Z,82.31
2022-11-18T23:16:41.990Z,82.39
2022-11-18T23:19:14.909Z,82.31
2022-11-18T23:21:43.362Z,82.58
2022-11-18T23:24:14.989Z,82.47
2022-11-18T23:26:42.368Z,82.93
2022-11-18T23:29:10.915Z,83.23
2022-11-18T23:31:43.030Z,83.16
2022-11-18T23:34:12.760Z,83.13
2022-11-18T23:36:39.962Z,83.09
2022-11-18T23:39:06.834Z,82.90
2022-11-18T23:41:33.665Z,83.13
2022-11-18T23:44:00.650Z,83.15
2022-11-18T23:46:27.946Z,83.31
2022-11-18T23:48:55.054Z,83.46
2022-11-18T23:51:23.850Z,83.70
2022-11-18T23:53:56.287Z,83.79
2022-11-18T23:56:25.435Z,83.79
2022-11-18T23:58:53.807Z,83.74
